Time;durP1;ratioP1;P1;durP2;ratioP2;P2;SDS_P1;SDS_P2;PMS_P1;PMS_P2;Temp;Humidity;BMP_temperature;BMP_pressure;BME280_temperature;BME280_humidity;BME280_pressure;Samples;Min_cycle;Max_cycle;Signal;HPM_P1;HPM_P2
2021/06/02 00:01:50;;;;;;;1.20;1.10;;;;;;;10.21;100.00;97831.25;5132965;27;20651;-82
2021/06/02 00:04:20;;;;;;;1.27;1.27;;;;;;;10.29;100.00;97830.72;5132531;27;20183;-81
2021/06/02 00:06:49;;;;;;;1.00;1.00;;;;;;;10.32;100.00;97842.75;5132868;27;20198;-82
2021/06/02 00:09:17;;;;;;;1.20;1.20;;;;;;;10.19;100.00;97855.97;5132939;27;20202;-82
2021/06/02 00:11:47;;;;;;;1.10;1.10;;;;;;;10.04;100.00;97857.97;5132507;27;20679;-83
2021/06/02 00:14:19;;;;;;;1.13;1.10;;;;;;;9.97;100.00;97862.00;5132597;27;20418;-82
2021/06/02 00:16:46;;;;;;;3.63;2.37;;;;;;;10.03;100.00;97868.59;5135242;27;20183;-82
2021/06/02 00:19:13;;;;;;;1.23;1.20;;;;;;;9.88;100.00;97883.72;5136582;27;20579;-83
2021/06/02 00:21:41;;;;;;;1.10;1.10;;;;;;;9.77;100.00;97892.41;5136806;27;20206;-83
2021/06/02 00:24:08;;;;;;;1.13;1.10;;;;;;;9.79;100.00;97901.00;5136730;27;20190;-83
2021/06/02 00:26:36;;;;;;;1.40;1.37;;;;;;;9.76;100.00;97895.97;5136431;27;20259;-83
2021/06/02 00:29:05;;;;;;;1.00;1.00;;;;;;;9.78;100.00;97928.22;5136800;27;20202;-83
2021/06/02 00:31:34;;;;;;;1.40;1.30;;;;;;;9.76;100.00;97949.31;5136948;27;20263;-83
2021/06/02 00:34:02;;;;;;;1.40;1.33;;;;;;;9.72;100.00;97950.50;5136458;27;20190;-83
2021/06/02 00:36:30;;;;;;;1.47;1.37;;;;;;;9.68;100.00;97970.06;5136362;27;20226;-82
2021/06/02 00:38:57;;;;;;;1.10;1.10;;;;;;;9.75;100.00;97999.34;5136252;27;20290;-83
2021/06/02 00:41:24;;;;;;;1.17;1.17;;;;;;;9.67;100.00;98010.38;5136448;27;20210;-82
2021/06/02 00:43:51;;;;;;;1.37;1.27;;;;;;;9.79;100.00;98031.47;5136486;27;20226;-83
2021/06/02 00:46:22;;;;;;;1.00;1.00;;;;;;;9.75;100.00;98057.09;5136294;27;20222;-83
2021/06/02 00:48:50;;;;;;;1.37;1.27;;;;;;;9.70;100.00;98081.06;5135940;27;20190;-83
2021/06/02 00:51:19;;;;;;;1.27;1.17;;;;;;;9.67;100.00;98090.94;5136237;27;20195;-83
2021/06/02 00:53:46;;;;;;;1.63;1.13;;;;;;;9.80;100.00;98098.78;5136082;27;20222;-83
2021/06/02 00:56:14;;;;;;;1.30;1.20;;;;;;;9.82;100.00;98107.41;5136273;27;20186;-83
2021/06/02 00:58:46;;;;;;;1.03;1.03;;;;;;;9.70;100.00;98122.25;5136081;27;20199;-83
2021/06/02 01:01:14;;;;;;;1.00;1.00;;;;;;;9.72;100.00;98125.59;5136136;27;20183;-83
2021/06/02 01:03:42;;;;;;;1.17;1.17;;;;;;;9.69;100.00;98120.53;5135790;27;20191;-83
2021/06/02 01:06:10;;;;;;;2.27;1.37;;;;;;;9.71;100.00;98124.75;5135871;27;20686;-83
2021/06/02 01:08:37;;;;;;;2.37;1.40;;;;;;;9.68;100.00;98129.38;5135584;27;20205;-83
2021/06/02 01:11:04;;;;;;;1.70;1.07;;;;;;;9.71;100.00;98123.91;5135812;27;20240;-83
2021/06/02 01:13:35;;;;;;;0.90;0.90;;;;;;;9.69;100.00;98131.88;5135943;27;20201;-83
2021/06/02 01:16:02;;;;;;;1.80;1.00;;;;;;;9.68;100.00;98135.47;5135602;27;20175;-82
2021/06/02 01:18:31;;;;;;;1.00;1.00;;;;;;;9.67;100.00;98128.53;5135625;27;20195;-83
2021/06/02 01:21:01;;;;;;;1.20;1.20;;;;;;;9.74;100.00;98123.69;5135506;27;20205;-83
2021/06/02 01:23:30;;;;;;;1.00;1.00;;;;;;;9.78;100.00;98122.53;5135759;27;20195;-83
2021/06/02 01:25:57;;;;;;;1.07;1.07;;;;;;;9.79;100.00;98126.81;5135830;27;20649;-82
2021/06/02 01:28:23;;;;;;;0.80;0.80;;;;;;;9.76;100.00;98122.63;5134699;27;20195;-82
2021/06/02 01:30:53;;;;;;;1.17;0.97;;;;;;;9.75;100.00;98120.94;5135515;27;20199;-82
2021/06/02 01:33:46;;;;;;;0.80;0.80;;;;;;;9.84;100.00;98116.03;5135620;27;20198;-82
2021/06/02 01:36:15;;;;;;;0.83;0.83;;;;;;;9.90;100.00;98112.94;5135276;27;20178;-82
2021/06/02 01:39:20;;;;;;;1.50;0.70;;;;;;;9.79;100.00;98099.72;5135056;27;20198;-82
2021/06/02 01:42:24;;;;;;;1.30;1.00;;;;;;;9.80;100.00;98083.84;5135330;27;20190;-82
2021/06/02 01:45:23;;;;;;;1.00;1.00;;;;;;;9.75;100.00;98080.72;5125186;27;20309;-83
2021/06/02 01:48:26;;;;;;;1.00;1.00;;;;;;;9.70;100.00;98080.22;5135208;27;20217;-83
2021/06/02 01:51:28;;;;;;;0.80;0.80;;;;;;;9.68;100.00;98071.63;5135210;27;20184;-82
2021/06/02 01:54:39;;;;;;;0.87;0.87;;;;;;;9.68;100.00;98079.50;5134773;27;20237;-82
2021/06/02 01:57:42;;;;;;;0.80;0.80;;;;;;;9.70;100.00;98078.44;5134838;27;20179;-82
2021/06/02 02:00:43;;;;;;;0.70;0.70;;;;;;;9.55;100.00;98076.03;5134748;27;20182;-82
2021/06/02 02:03:55;;;;;;;0.80;0.80;;;;;;;9.46;100.00;98072.28;5134810;27;20199;-82
2021/06/02 02:06:58;;;;;;;0.90;0.90;;;;;;;9.53;100.00;98078.78;5128440;27;20304;-82
2021/06/02 02:09:38;;;;;;;0.50;0.50;;;;;;;9.37;100.00;98081.63;5134633;27;20194;-82
2021/06/02 02:12:18;;;;;;;1.20;0.80;;;;;;;9.37;100.00;98094.75;5134962;27;20191;-82
2021/06/02 02:15:18;;;;;;;0.60;0.60;;;;;;;9.24;100.00;98088.69;5134538;27;20613;-82
2021/06/02 02:18:21;;;;;;;0.70;0.70;;;;;;;9.20;100.00;98098.53;5134509;27;20255;-82
2021/06/02 02:20:54;;;;;;;0.60;0.60;;;;;;;9.25;100.00;98116.63;5115110;27;20650;-82
2021/06/02 02:23:34;;;;;;;0.60;0.60;;;;;;;9.20;100.00;98121.31;5133954;27;20547;-82
2021/06/02 02:26:23;;;;;;;0.90;0.90;;;;;;;9.18;100.00;98129.31;5134725;27;20203;-82
2021/06/02 02:28:53;;;;;;;1.47;0.90;;;;;;;9.19;100.00;98133.59;5134337;27;20556;-82
2021/06/02 02:31:57;;;;;;;0.70;0.70;;;;;;;9.15;100.00;98141.78;5134308;27;20251;-82
2021/06/02 02:34:42;;;;;;;0.63;0.63;;;;;;;9.33;100.00;98150.19;5133682;27;20578;-82
2021/06/02 02:37:17;;;;;;;0.50;0.50;;;;;;;9.26;100.00;98158.47;5134239;27;20190;-82
2021/06/02 02:39:53;;;;;;;0.40;0.40;;;;;;;9.32;100.00;98158.97;5133223;27;20225;-82
2021/06/02 02:42:26;;;;;;;0.70;0.70;;;;;;;9.32;100.00;98161.59;5133839;27;20184;-82
2021/06/02 02:45:02;;;;;;;0.57;0.57;;;;;;;9.41;100.00;98168.88;5133647;27;20207;-82
2021/06/02 02:47:34;;;;;;;0.67;0.50;;;;;;;9.44;100.00;98181.78;5134036;27;20668;-82
2021/06/02 02:50:14;;;;;;;1.60;0.60;;;;;;;9.55;100.00;98184.50;5133775;27;20186;-82
2021/06/02 02:52:51;;;;;;;2.37;0.80;;;;;;;9.69;100.00;98189.63;5133861;27;20190;-82
2021/06/02 02:55:20;;;;;;;0.70;0.70;;;;;;;9.73;100.00;98193.75;5133344;27;20227;-82
2021/06/02 02:57:56;;;;;;;0.67;0.63;;;;;;;9.67;100.00;98181.06;5134118;27;20218;-82
2021/06/02 03:00:30;;;;;;;0.83;0.83;;;;;;;9.60;100.00;98179.78;5133817;27;20171;-82
2021/06/02 03:03:05;;;;;;;1.10;1.10;;;;;;;9.60;100.00;98177.16;5134230;27;20214;-82
2021/06/02 03:05:34;;;;;;;0.70;0.70;;;;;;;9.48;100.00;98157.84;5133616;27;20205;-82
2021/06/02 03:08:15;;;;;;;0.70;0.70;;;;;;;9.13;100.00;98147.13;5133248;27;20198;-82
2021/06/02 03:10:47;;;;;;;0.80;0.80;;;;;;;9.16;100.00;98143.47;5133581;27;20666;-82
2021/06/02 03:13:26;;;;;;;0.73;0.73;;;;;;;9.11;100.00;98164.78;5133398;27;20191;-83
2021/06/02 03:15:59;;;;;;;3.50;1.00;;;;;;;9.13;100.00;98167.28;5133480;27;20265;-83
2021/06/02 03:18:40;;;;;;;2.60;0.97;;;;;;;9.19;100.00;98170.31;5132141;27;20221;-82
2021/06/02 03:21:26;;;;;;;1.93;0.93;;;;;;;9.20;100.00;98182.50;5132721;27;20574;-82
2021/06/02 03:24:04;;;;;;;0.90;0.90;;;;;;;9.41;100.00;98189.88;5132382;27;20186;-82
2021/06/02 03:26:35;;;;;;;0.83;0.83;;;;;;;9.39;100.00;98189.97;5131969;27;20238;-82
2021/06/02 03:29:10;;;;;;;2.13;1.10;;;;;;;9.42;100.00;98176.66;5131875;27;20183;-82
2021/06/02 03:31:55;;;;;;;2.23;0.80;;;;;;;9.44;100.00;98182.63;5132524;27;20186;-82
2021/06/02 03:34:26;;;;;;;1.07;1.03;;;;;;;9.52;100.00;98182.09;5131698;27;20195;-82
2021/06/02 03:37:07;;;;;;;1.80;1.03;;;;;;;9.61;100.00;98185.88;5132235;27;20182;-82
2021/06/02 03:39:48;;;;;;;0.90;0.90;;;;;;;9.56;100.00;98173.09;5132127;27;20182;-82
2021/06/02 03:42:32;;;;;;;1.57;1.47;;;;;;;9.54;100.00;98146.09;5131706;27;20232;-81
2021/06/02 03:45:25;;;;;;;2.27;2.07;;;;;;;9.52;100.00;98135.72;5131733;27;20293;-82
2021/06/02 03:48:00;;;;;;;1.87;1.77;;;;;;;9.68;100.00;98129.38;5129725;27;20614;-82
2021/06/02 03:50:35;;;;;;;2.87;1.83;;;;;;;9.60;100.00;98110.72;5131574;27;20650;-82
2021/06/02 03:53:14;;;;;;;6.13;3.50;;;;;;;9.72;100.00;98099.31;5130293;27;20715;-83
2021/06/02 03:55:45;;;;;;;8.50;5.23;;;;;;;9.78;100.00;98088.41;5130095;27;20226;-84
2021/06/02 03:58:32;;;;;;;6.67;4.30;;;;;;;9.77;100.00;98073.59;5134395;27;20198;-83
2021/06/02 04:01:14;;;;;;;1.50;1.40;;;;;;;9.80;100.00;98051.50;5129823;27;20178;-83
2021/06/02 04:04:01;;;;;;;1.37;1.27;;;;;;;9.81;100.00;98034.81;5130039;27;20187;-83
2021/06/02 04:06:38;;;;;;;1.67;1.53;;;;;;;9.95;100.00;98014.47;5131480;27;20238;-83
2021/06/02 04:09:10;;;;;;;1.90;1.23;;;;;;;9.92;100.00;97998.94;5131893;27;20208;-83
2021/06/02 04:11:48;;;;;;;2.30;1.67;;;;;;;10.00;100.00;97972.09;5131713;27;20179;-83
2021/06/02 04:14:29;;;;;;;1.33;1.30;;;;;;;10.02;100.00;97964.97;5131551;27;20182;-83
2021/06/02 04:16:57;;;;;;;1.47;1.37;;;;;;;10.02;100.00;97946.56;5131875;27;20262;-84
2021/06/02 04:19:28;;;;;;;1.13;1.10;;;;;;;10.00;100.00;97930.06;5132642;27;20634;-83
2021/06/02 04:22:01;;;;;;;1.40;1.30;;;;;;;10.03;100.00;97918.50;5132656;27;20187;-84
2021/06/02 04:24:31;;;;;;;1.47;1.37;;;;;;;10.09;100.00;97908.38;5132605;27;20186;-83
2021/06/02 04:26:58;;;;;;;1.30;1.30;;;;;;;10.08;100.00;97890.97;5132470;27;20604;-84
2021/06/02 04:29:27;;;;;;;1.30;1.20;;;;;;;10.07;100.00;97883.19;5132129;27;20744;-84
2021/06/02 04:31:57;;;;;;;1.23;1.23;;;;;;;10.20;100.00;97889.19;5132539;27;20191;-84
2021/06/02 04:34:25;;;;;;;1.23;1.13;;;;;;;10.30;100.00;97878.84;5132417;27;20195;-83
2021/06/02 04:36:53;;;;;;;1.10;1.10;;;;;;;10.29;100.00;97877.16;5132229;27;20195;-83
2021/06/02 04:39:23;;;;;;;1.20;1.20;;;;;;;10.34;100.00;97869.75;5132418;27;20201;-84
2021/06/02 04:41:53;;;;;;;1.37;1.27;;;;;;;10.34;100.00;97856.63;5132848;27;20213;-83
2021/06/02 04:44:22;;;;;;;1.40;1.30;;;;;;;10.43;100.00;97832.25;5132246;27;20273;-84
2021/06/02 04:46:49;;;;;;;1.23;1.20;;;;;;;10.35;100.00;97822.31;5132450;27;20222;-84
2021/06/02 04:49:16;;;;;;;1.10;1.10;;;;;;;10.42;100.00;97814.81;5131953;27;20194;-83
2021/06/02 04:52:25;;;;;;;1.30;1.20;;;;;;;10.44;100.00;97816.38;5132365;27;20194;-84
2021/06/02 04:55:26;;;;;;;1.80;1.20;;;;;;;10.42;100.00;97812.16;5132262;27;20231;-83
2021/06/02 04:58:24;;;;;;;1.57;1.40;;;;;;;10.52;100.00;97799.16;5132541;27;20600;-83
2021/06/02 05:01:09;;;;;;;2.33;1.20;;;;;;;10.50;100.00;97790.56;5132200;27;20202;-83
2021/06/02 05:04:11;;;;;;;1.20;1.20;;;;;;;10.55;100.00;97799.75;5135633;27;20187;-83
2021/06/02 05:07:04;;;;;;;1.00;1.00;;;;;;;10.64;100.00;97796.41;5132505;27;20251;-83
2021/06/02 05:10:20;;;;;;;1.03;1.03;;;;;;;10.60;100.00;97797.59;5135635;27;20187;-83
2021/06/02 05:13:35;;;;;;;1.17;1.17;;;;;;;10.64;100.00;97798.19;5135837;27;20195;-83
2021/06/02 05:16:42;;;;;;;1.43;1.33;;;;;;;10.81;100.00;97794.22;5136191;27;20567;-83
2021/06/02 05:20:23;;;;;;;1.40;1.30;;;;;;;10.80;100.00;97797.78;5092543;28;20666;-83
2021/06/02 05:23:33;;;;;;;2.40;1.40;;;;;;;10.86;100.00;97797.31;5092547;28;20196;-83
2021/06/02 05:27:00;;;;;;;2.43;1.23;;;;;;;10.81;100.00;97791.59;5135675;27;20590;-83
2021/06/02 05:30:06;;;;;;;1.70;1.57;;;;;;;10.74;100.00;97774.59;5135397;27;20191;-84
2021/06/02 05:33:12;;;;;;;1.50;1.40;;;;;;;10.93;100.00;97774.81;5109750;27;20686;-83
2021/06/02 05:36:01;;;;;;;1.70;1.33;;;;;;;11.03;100.00;97767.84;5135619;27;20182;-83
2021/06/02 05:39:01;;;;;;;1.40;1.30;;;;;;;11.25;100.00;97760.81;5135268;27;20659;-83
2021/06/02 05:42:04;;;;;;;3.17;1.60;;;;;;;11.22;100.00;97746.13;5132830;27;20194;-83
2021/06/02 05:45:08;;;;;;;3.50;1.43;;;;;;;11.26;100.00;97734.41;5135289;27;20199;-83
2021/06/02 05:48:07;;;;;;;5.10;1.50;;;;;;;11.14;100.00;97716.97;5135211;27;20648;-83
2021/06/02 05:51:12;;;;;;;2.40;1.70;;;;;;;11.21;100.00;97694.44;5135148;27;20210;-83
2021/06/02 05:54:14;;;;;;;1.60;1.50;;;;;;;11.47;100.00;97678.28;5134517;27;20229;-83
2021/06/02 05:57:32;;;;;;;1.70;1.50;;;;;;;11.64;100.00;97649.56;5136135;27;20248;-83
2021/06/02 06:00:15;;;;;;;1.57;1.47;;;;;;;11.83;100.00;97619.81;5071613;28;20190;-84
2021/06/02 06:03:05;;;;;;;1.67;1.53;;;;;;;12.00;100.00;97597.31;5071659;28;20189;-83
2021/06/02 06:06:04;;;;;;;1.50;1.40;;;;;;;11.91;100.00;97574.38;5124747;27;20215;-84
2021/06/02 06:09:16;;;;;;;1.40;1.30;;;;;;;12.12;100.00;97561.97;5134571;27;20186;-84
2021/06/02 06:12:30;;;;;;;1.57;1.47;;;;;;;12.30;100.00;97542.84;5134843;27;20194;-84
2021/06/02 06:15:35;;;;;;;2.30;1.43;;;;;;;12.37;100.00;97526.31;5051439;28;20197;-85
2021/06/02 06:18:43;;;;;;;2.00;1.70;;;;;;;12.20;100.00;97499.84;5133142;27;20239;-84
2021/06/02 06:21:51;;;;;;;2.67;1.50;;;;;;;12.30;100.00;97501.50;5111772;27;20199;-84
2021/06/02 06:24:24;;;;;;;3.23;1.50;;;;;;;12.79;100.00;97489.06;5108128;27;20191;-85
2021/06/02 06:27:00;;;;;;;1.80;1.70;;;;;;;12.95;100.00;97446.25;5134500;27;20252;-84
2021/06/02 06:29:34;;;;;;;1.77;1.67;;;;;;;13.07;100.00;97437.19;5134435;27;20185;-84
2021/06/02 06:32:02;;;;;;;1.57;1.47;;;;;;;12.75;100.00;97426.19;5134289;27;20175;-84
2021/06/02 06:34:33;;;;;;;1.43;1.33;;;;;;;12.52;100.00;97430.97;5134381;27;20222;-83
2021/06/02 06:37:01;;;;;;;1.73;1.63;;;;;;;12.35;100.00;97436.00;5134591;27;20179;-84
2021/06/02 06:39:46;;;;;;;3.80;2.63;;;;;;;12.45;100.00;97437.78;5134113;27;20195;-83
2021/06/02 06:42:15;;;;;;;3.57;1.90;;;;;;;12.51;100.00;97461.78;5134116;27;20183;-83
2021/06/02 06:44:44;;;;;;;1.70;1.60;;;;;;;12.46;100.00;97456.09;5134056;27;20203;-84
2021/06/02 06:47:13;;;;;;;2.03;1.40;;;;;;;12.36;100.00;97458.75;5133986;27;20222;-84
2021/06/02 06:49:42;;;;;;;1.93;1.83;;;;;;;12.42;100.00;97457.34;5133925;27;20195;-86
2021/06/02 06:52:10;;;;;;;2.77;1.40;;;;;;;12.36;100.00;97452.63;5131803;27;20194;-83
2021/06/02 06:54:41;;;;;;;2.30;1.73;;;;;;;12.58;100.00;97435.69;5130735;27;20285;-84
2021/06/02 06:57:09;;;;;;;1.70;1.60;;;;;;;12.72;100.00;97437.84;5131943;27;20191;-85
2021/06/02 06:59:36;;;;;;;2.13;1.70;;;;;;;12.73;100.00;97417.59;5132366;27;20281;-82
2021/06/02 07:02:04;;;;;;;1.50;1.40;;;;;;;12.70;100.00;97394.97;5133426;27;20229;-82
2021/06/02 07:04:33;;;;;;;1.50;1.40;;;;;;;12.77;100.00;97374.09;5133456;27;20202;-81
2021/06/02 07:07:01;;;;;;;1.90;1.80;;;;;;;12.83;100.00;97353.25;5133915;27;20604;-82
2021/06/02 07:09:28;;;;;;;1.93;1.83;;;;;;;12.91;100.00;97364.88;5133287;27;20198;-83
2021/06/02 07:11:57;;;;;;;2.77;1.93;;;;;;;12.88;100.00;97371.28;5133390;27;20197;-87
2021/06/02 07:14:28;;;;;;;2.87;1.90;;;;;;;12.97;100.00;97373.03;5133657;27;20195;-84
2021/06/02 07:16:57;;;;;;;3.37;1.33;;;;;;;13.00;100.00;97356.94;5134144;27;20289;-82
2021/06/02 07:19:24;;;;;;;2.17;1.90;;;;;;;13.03;100.00;97356.63;5133771;27;20198;-83
2021/06/02 07:21:52;;;;;;;2.03;1.93;;;;;;;13.18;100.00;97362.25;5134038;27;20678;-84
2021/06/02 07:24:20;;;;;;;3.20;2.20;;;;;;;13.37;100.00;97366.63;5133023;27;20228;-83
2021/06/02 07:26:47;;;;;;;2.03;1.93;;;;;;;13.18;100.00;97348.22;5133931;27;20214;-82
2021/06/02 07:29:16;;;;;;;2.40;2.20;;;;;;;13.18;100.00;97327.09;5134056;27;20194;-83
2021/06/02 07:31:42;;;;;;;3.67;1.87;;;;;;;13.40;100.00;97316.13;5134140;27;20249;-83
2021/06/02 07:34:09;;;;;;;3.30;2.10;;;;;;;13.41;100.00;97327.53;5133615;27;20210;-82
2021/06/02 07:36:37;;;;;;;1.80;1.70;;;;;;;13.66;100.00;97318.84;5133886;27;20194;-81
2021/06/02 07:39:05;;;;;;;4.67;2.00;;;;;;;13.68;100.00;97300.19;5133417;27;20198;-82
2021/06/02 07:41:32;;;;;;;1.80;1.70;;;;;;;14.09;100.00;97292.56;5133543;27;20194;-83
2021/06/02 07:43:59;;;;;;;1.93;1.83;;;;;;;14.21;100.00;97278.13;5133329;27;20233;-83
2021/06/02 07:46:27;;;;;;;2.07;1.87;;;;;;;14.28;100.00;97266.75;5133426;27;20229;-83
2021/06/02 07:48:54;;;;;;;1.70;1.60;;;;;;;13.89;100.00;97237.28;5133339;27;20190;-82
2021/06/02 07:51:22;;;;;;;1.97;1.87;;;;;;;13.70;100.00;97221.63;5133647;27;20671;-83
2021/06/02 07:53:49;;;;;;;1.90;1.80;;;;;;;13.69;100.00;97249.03;5133164;27;20584;-83
2021/06/02 07:56:16;;;;;;;2.40;2.13;;;;;;;13.69;100.00;97260.41;5133653;27;20187;-82
2021/06/02 07:58:43;;;;;;;6.17;1.83;;;;;;;13.59;100.00;97266.78;5133033;28;20712;-82
2021/06/02 08:01:09;;;;;;;3.33;1.77;;;;;;;13.66;100.00;97268.66;5133977;28;20195;-83
2021/06/02 08:03:38;;;;;;;2.27;1.77;;;;;;;13.80;100.00;97254.88;5133083;28;20191;-83
2021/06/02 08:06:05;;;;;;;2.10;2.00;;;;;;;14.09;100.00;97274.06;5133437;28;20222;-82
2021/06/02 08:08:32;;;;;;;1.70;1.60;;;;;;;14.27;100.00;97261.63;5133541;28;20201;-83
2021/06/02 08:10:59;;;;;;;2.00;1.90;;;;;;;14.31;100.00;97240.97;5133215;28;20194;-81
2021/06/02 08:13:25;;;;;;;1.93;1.80;;;;;;;14.34;100.00;97222.97;5132479;28;20739;-84
2021/06/02 08:15:52;;;;;;;3.17;1.90;;;;;;;14.16;100.00;97201.06;5133010;27;20199;-85
2021/06/02 08:18:19;;;;;;;2.00;1.90;;;;;;;14.04;100.00;97200.53;5132462;28;20202;-84
2021/06/02 08:20:47;;;;;;;2.70;2.00;;;;;;;14.06;100.00;97232.06;5132770;27;20198;-84
2021/06/02 08:23:14;;;;;;;1.90;1.80;;;;;;;14.18;100.00;97259.91;5132494;28;20618;-84
2021/06/02 08:25:41;;;;;;;2.23;1.90;;;;;;;14.21;100.00;97278.13;5132867;28;20219;-84
2021/06/02 08:28:08;;;;;;;2.13;1.93;;;;;;;14.17;100.00;97290.81;5132389;28;21024;-84
2021/06/02 08:30:34;;;;;;;3.23;2.10;;;;;;;14.34;100.00;97306.75;5132717;28;20191;-84
2021/06/02 08:33:01;;;;;;;2.27;1.77;;;;;;;14.72;100.00;97316.94;5132341;28;20194;-84
2021/06/02 08:35:28;;;;;;;1.97;1.70;;;;;;;14.96;100.00;97283.56;5132617;27;20198;-87
2021/06/02 08:37:57;;;;;;;1.63;1.53;;;;;;;15.24;100.00;97249.72;5135485;27;20622;-86
2021/06/02 08:40:24;;;;;;;1.60;1.50;;;;;;;15.48;100.00;97216.28;5136397;27;20197;-86
2021/06/02 08:42:50;;;;;;;1.83;1.70;;;;;;;15.53;100.00;97184.84;5136364;27;20196;-86
2021/06/02 08:45:18;;;;;;;2.47;1.83;;;;;;;15.64;100.00;97208.31;5136456;27;20283;-87
2021/06/02 08:47:46;;;;;;;5.70;2.53;;;;;;;15.60;100.00;97213.13;5135238;27;20233;-87
2021/06/02 08:50:14;;;;;;;1.97;1.77;;;;;;;15.62;100.00;97234.16;5136229;27;20240;-86
2021/06/02 08:52:42;;;;;;;1.70;1.60;;;;;;;15.99;100.00;97209.78;5136073;27;20211;-86
2021/06/02 08:55:14;;;;;;;1.83;1.73;;;;;;;16.39;100.00;97157.59;5135821;27;20261;-87
2021/06/02 08:57:43;;;;;;;1.93;1.83;;;;;;;16.37;100.00;97099.41;5135128;27;20195;-87
2021/06/02 09:00:12;;;;;;;1.63;1.53;;;;;;;16.09;100.00;97096.41;5136068;27;20194;-86
2021/06/02 09:02:39;;;;;;;3.57;1.40;;;;;;;16.14;100.00;97130.34;5136457;27;20556;-87
2021/06/02 09:05:07;;;;;;;2.27;2.07;;;;;;;15.93;100.00;97136.22;5136334;27;20206;-88
2021/06/02 09:07:38;;;;;;;3.00;1.80;;;;;;;15.80;100.00;97142.06;5136098;27;20635;-87
2021/06/02 09:10:08;;;;;;;2.17;1.93;;;;;;;15.63;100.00;97181.00;5136486;27;20186;-87
2021/06/02 09:12:38;;;;;;;1.90;1.80;;;;;;;15.74;100.00;97195.75;5135916;27;20200;-85
2021/06/02 09:15:07;;;;;;;1.70;1.60;;;;;;;16.05;100.00;97163.22;5136078;27;20204;-85
2021/06/02 09:17:48;;;;;;;2.33;1.40;;;;;;;16.39;100.00;97105.38;5136054;27;20254;-86
2021/06/02 09:20:32;;;;;;;1.43;1.33;;;;;;;16.56;100.00;97102.63;5136323;27;20631;-85
2021/06/02 09:22:59;;;;;;;3.43;1.47;;;;;;;16.66;100.00;97103.22;5136043;27;20566;-87
2021/06/02 09:25:27;;;;;;;1.73;1.57;;;;;;;16.87;100.00;97074.22;5135783;27;20239;-87
2021/06/02 09:27:57;;;;;;;5.60;1.97;;;;;;;17.07;100.00;97031.22;5135989;27;20229;-85
2021/06/02 09:30:25;;;;;;;1.77;1.53;;;;;;;17.45;100.00;97039.94;5135599;27;20194;-88
2021/06/02 09:32:55;;;;;;;1.40;1.30;;;;;;;17.39;100.00;97007.97;5135569;27;20224;-87
2021/06/02 09:35:22;;;;;;;2.23;1.53;;;;;;;17.01;100.00;97016.84;5136248;27;20201;-86
2021/06/02 09:37:56;;;;;;;2.40;1.80;;;;;;;17.28;100.00;97076.53;5135516;27;20202;-85
2021/06/02 09:40:25;;;;;;;1.70;1.60;;;;;;;17.51;100.00;97043.72;5135651;27;20226;-87
2021/06/02 09:42:52;;;;;;;3.33;1.50;;;;;;;17.38;100.00;96948.69;5135376;27;20600;-85
2021/06/02 09:45:21;;;;;;;1.93;1.43;;;;;;;17.48;100.00;97018.31;5135319;27;20247;-85
2021/06/02 09:47:50;;;;;;;1.70;1.60;;;;;;;16.77;100.00;96987.88;5134975;27;20191;-86
2021/06/02 09:50:20;;;;;;;2.20;1.80;;;;;;;16.72;100.00;96991.00;5135481;27;20258;-87
2021/06/02 09:52:49;;;;;;;1.70;1.60;;;;;;;16.77;100.00;97052.41;5135417;27;20206;-88
2021/06/02 09:55:19;;;;;;;3.47;1.60;;;;;;;16.76;100.00;97036.63;5135204;27;20325;-88
2021/06/02 09:57:48;;;;;;;1.47;1.30;;;;;;;16.55;100.00;97008.06;5135225;27;20187;-85
2021/06/02 10:00:16;;;;;;;1.73;1.53;;;;;;;16.25;100.00;97055.72;5135303;27;20227;-87
2021/06/02 10:02:56;;;;;;;1.40;1.30;;;;;;;16.35;100.00;97082.03;5135702;27;20225;-88
2021/06/02 10:05:23;;;;;;;4.27;1.80;;;;;;;16.40;100.00;97111.50;5135320;27;20634;-86
2021/06/02 10:07:50;;;;;;;1.40;1.33;;;;;;;16.37;100.00;97114.50;5134941;27;20212;-84
2021/06/02 10:10:19;;;;;;;2.83;1.93;;;;;;;16.16;100.00;97091.22;5134979;27;20206;-86
2021/06/02 10:13:03;;;;;;;1.80;1.70;;;;;;;16.37;100.00;97107.34;5135409;27;20578;-87
2021/06/02 10:15:32;;;;;;;1.90;1.80;;;;;;;16.35;100.00;97104.06;5134988;27;20179;-87
2021/06/02 10:18:01;;;;;;;1.83;1.67;;;;;;;16.44;100.00;97096.88;5134736;27;20198;-85
2021/06/02 10:20:28;;;;;;;1.97;1.53;;;;;;;16.55;100.00;97103.59;5134850;27;20230;-87
2021/06/02 10:22:57;;;;;;;1.50;1.40;;;;;;;16.54;100.00;97115.22;5134816;27;20216;-86
2021/06/02 10:25:25;;;;;;;2.00;1.47;;;;;;;16.40;100.00;97058.44;5134547;27;20232;-85
2021/06/02 10:27:56;;;;;;;1.50;1.40;;;;;;;16.71;100.00;97052.25;5134670;27;20282;-85
2021/06/02 10:30:27;;;;;;;1.67;1.57;;;;;;;17.04;100.00;97043.03;5134547;27;20206;-85
2021/06/02 10:32:55;;;;;;;1.77;1.57;;;;;;;16.75;100.00;97003.13;5134584;27;20183;-86
2021/06/02 10:35:23;;;;;;;2.27;1.80;;;;;;;16.57;100.00;97014.03;5134699;27;20198;-86
2021/06/02 10:37:51;;;;;;;2.00;1.30;;;;;;;16.80;100.00;97052.03;5134490;27;20233;-86
2021/06/02 10:40:22;;;;;;;1.47;1.37;;;;;;;16.71;100.00;97023.06;5134262;27;20225;-87
2021/06/02 10:42:58;;;;;;;2.13;1.70;;;;;;;16.57;100.00;97003.41;5134519;27;20232;-86
2021/06/02 10:45:28;;;;;;;1.70;1.60;;;;;;;16.65;100.00;96987.41;5134128;27;20250;-85
2021/06/02 10:47:56;;;;;;;1.77;1.30;;;;;;;16.94;100.00;96999.13;5134042;27;20197;-85
2021/06/02 10:50:36;;;;;;;1.40;1.27;;;;;;;17.69;100.00;97014.09;5133843;27;20764;-84
2021/06/02 10:53:21;;;;;;;1.50;1.40;;;;;;;17.72;100.00;96950.75;5134465;27;20278;-86
2021/06/02 10:55:50;;;;;;;2.00;1.37;;;;;;;17.40;100.00;96936.06;5133874;27;20241;-86
2021/06/02 10:58:22;;;;;;;3.20;1.80;;;;;;;17.23;100.00;97016.97;5133835;27;20198;-85
2021/06/02 11:00:54;;;;;;;3.07;2.23;;;;;;;17.05;100.00;97065.13;5133517;27;20199;-86
2021/06/02 11:03:24;;;;;;;2.27;2.13;;;;;;;16.50;100.00;97067.00;5133733;27;20202;-87
2021/06/02 11:06:34;;;;;;;2.60;2.40;;;;;;;16.25;100.00;97092.84;5134267;27;20209;-85
2021/06/02 11:09:25;;;;;;;2.57;1.90;;;;;;;16.25;100.00;97114.06;5133502;27;20246;-85
2021/06/02 11:12:06;;;;;;;14.27;6.73;;;;;;;16.33;100.00;97132.59;5133675;27;20228;-85
2021/06/02 11:14:33;;;;;;;6.23;3.90;;;;;;;16.68;100.00;97127.75;5133782;27;20289;-85
2021/06/02 11:17:11;;;;;;;2.70;2.50;;;;;;;16.77;100.00;97109.97;5133432;27;20201;-86
2021/06/02 11:19:42;;;;;;;2.17;1.40;;;;;;;16.62;100.00;97073.53;5133479;27;20190;-86
2021/06/02 11:22:14;;;;;;;1.63;1.53;;;;;;;17.29;100.00;97072.84;5133480;27;20658;-87
2021/06/02 11:24:46;;;;;;;5.00;1.97;;;;;;;17.31;100.00;97027.50;5133318;27;20182;-85
2021/06/02 11:27:30;;;;;;;3.47;1.67;;;;;;;17.37;100.00;97010.00;5133178;27;20217;-86
2021/06/02 11:30:12;;;;;;;1.30;1.30;;;;;;;17.42;100.00;97010.25;5133755;27;20559;-88
2021/06/02 11:32:59;;;;;;;3.50;1.60;;;;;;;17.23;100.00;96983.25;5133340;27;20670;-86
2021/06/02 11:36:02;;;;;;;1.60;1.50;;;;;;;17.10;100.00;96999.81;5133498;27;20270;-86
2021/06/02 11:38:32;;;;;;;1.70;1.60;;;;;;;17.10;100.00;97037.00;5133202;27;20197;-87
2021/06/02 11:40:59;;;;;;;1.30;1.20;;;;;;;17.87;100.00;97037.66;5133657;27;20294;-88
2021/06/02 11:43:26;;;;;;;1.33;1.17;;;;;;;18.11;100.00;96993.97;5133176;27;20229;-86
2021/06/02 11:45:55;;;;;;;1.30;1.20;;;;;;;17.83;100.00;96910.41;5133525;27;20682;-88
2021/06/02 11:48:27;;;;;;;2.93;1.43;;;;;;;17.31;100.00;96926.53;5133527;27;20202;-87
2021/06/02 11:50:55;;;;;;;1.30;1.23;;;;;;;18.00;100.00;96979.31;5133605;27;20182;-87
2021/06/02 11:53:22;;;;;;;1.40;1.40;;;;;;;18.27;100.00;96986.56;5132888;27;20238;-87
2021/06/02 11:55:54;;;;;;;1.00;1.00;;;;;;;18.21;100.00;96962.56;5133393;27;20275;-86
2021/06/02 11:58:20;;;;;;;1.43;1.30;;;;;;;18.12;100.00;96918.50;5132681;27;20304;-85
2021/06/02 12:00:49;;;;;;;2.93;1.13;;;;;;;17.53;100.00;96853.84;5132885;27;20195;-85
2021/06/02 12:03:16;;;;;;;6.57;1.93;;;;;;;17.49;100.00;96870.31;5132725;27;20228;-84
2021/06/02 12:05:44;;;;;;;1.10;1.10;;;;;;;17.21;100.00;96852.44;5133222;27;20556;-87
2021/06/02 12:08:12;;;;;;;1.33;1.27;;;;;;;17.15;100.00;96882.41;5132871;27;20191;-86
2021/06/02 12:10:42;;;;;;;1.77;1.00;;;;;;;16.85;100.00;96890.38;5133631;27;20191;-86